Al Rawdah — V7VM8 — position and weather

sailwx.info

Track history (hours):
 
Tides and Currents Weather Stations Pressure Air Temp Water Temp Dewpoint Dewpoint Depression Visibility Wind Speed Wind Dir Waves Ship Positions

Al Rawdah

Last reported at 2017-Nov-20 00:30 UTC. Time now 2017-Nov-20 13:59 UTC.
Position N 38°07' W 009°41'.

Length 307 m; draft 8.7 m.

Type: Cargo ship. MMSI: 538004160.

Date/timePositionNaut miles runAvg speedWind from/ knotsBaromVisibWave heightAir tempDewpointWater temp
2017-Nov-20 00:30N 38°07' W 009°41'815.5
2017-Nov-20 00:00N 37°59' W 009°38'815.9
2017-Nov-19 23:30N 37°51' W 009°36'815.7
2017-Nov-19 23:00N 37°44' W 009°34'815.4
2017-Nov-19 22:30N 37°36' W 009°31'815.3
2017-Nov-19 22:00N 37°29' W 009°29'815.4
2017-Nov-19 21:30N 37°21' W 009°27'815.1
2017-Nov-19 21:00N 37°14' W 009°25'815.2
2017-Nov-19 20:30N 37°06' W 009°23'714.5
2017-Nov-19 20:00N 36°59' W 009°21'714.2
2017-Nov-19 19:30N 36°53' W 009°18'714.5
2017-Nov-19 19:00N 36°47' W 009°12'714.7
2017-Nov-19 18:30N 36°44' W 009°04'815.4
2017-Nov-19 17:59N 36°41' W 008°55'715.2
2017-Nov-19 17:30N 36°38' W 008°46'815.4
2017-Nov-19 17:00N 36°36' W 008°37'815.2
2017-Nov-19 16:30N 36°33' W 008°28'1815.0
2017-Nov-19 15:16N 36°28' W 008°06'414.9
2017-Nov-19 15:00N 36°26' W 008°02'12115.2
2017-Nov-19 07:04N 35°58' W 005°36'114.1
2017-Nov-19 07:00N 35°58' W 005°35'713.9
2017-Nov-19 06:30N 35°60' W 005°27'815.3
2017-Nov-19 06:00N 36°02' W 005°18'  
2017-Nov-16 19:53N 36°49' E 013°26'615.5
2017-Nov-16 19:30N 36°47' E 013°33'815.6
2017-Nov-16 19:00N 36°44' E 013°42'815.4
2017-Nov-16 18:30N 36°41' E 013°51'815.4
2017-Nov-16 18:00N 36°39' E 014°00'815.3
2017-Nov-16 17:30N 36°36' E 014°09'815.5
2017-Nov-16 17:00N 36°33' E 014°18'815.1
2017-Nov-16 16:30N 36°31' E 014°27'714.9
2017-Nov-16 16:00N 36°29' E 014°36'815.1
2017-Nov-16 15:30N 36°28' E 014°45'815.5
2017-Nov-16 15:00N 36°27' E 014°55'40914.3
2017-Nov-15 10:28N 36°47' E 023°24'3115.3
2017-Nov-15 08:28N 37°14' E 023°41'716.1
2017-Nov-15 08:00N 37°21' E 023°44'815.8
2017-Nov-15 07:30N 37°29' E 023°44'815.7
2017-Nov-15 07:00N 37°37' E 023°44'816.2
2017-Nov-15 06:30N 37°44' E 023°40'815.6
2017-Nov-15 06:00N 37°52' E 023°37'510.9
2017-Nov-15 05:30N 37°57' E 023°35'0 0.7
2017-Nov-15 05:00N 37°57' E 023°35'0 0.0
2017-Nov-15 04:30N 37°57' E 023°35'0 0.0
2017-Nov-15 04:00N 37°57' E 023°35'0 0.0
2017-Nov-15 03:30N 37°57' E 023°35'0 0.0
2017-Nov-15 03:00N 37°57' E 023°35'0 0.0
2017-Nov-15 02:30N 37°57' E 023°35'0 0.1
2017-Nov-15 02:00N 37°57' E 023°35'0 0.0
2017-Nov-15 01:30N 37°57' E 023°35'0 0.0
2017-Nov-15 01:00N 37°57' E 023°35'0 0.0
2017-Nov-15 00:30N 37°57' E 023°35'0 0.0
2017-Nov-15 00:01N 37°57' E 023°35'0 0.0
2017-Nov-14 23:30N 37°57' E 023°35'0 0.0
2017-Nov-14 23:00N 37°57' E 023°35'0 0.0
2017-Nov-14 22:30N 37°57' E 023°35'0 0.0
2017-Nov-14 22:00N 37°57' E 023°35'0 0.0
2017-Nov-14 21:30N 37°57' E 023°35'0 0.0
2017-Nov-14 21:00N 37°57' E 023°35'0 0.0
2017-Nov-14 20:30N 37°57' E 023°35'0 0.0
2017-Nov-14 20:00N 37°57' E 023°35'0 0.0
2017-Nov-14 19:30N 37°57' E 023°35'0 0.0
2017-Nov-14 19:00N 37°57' E 023°35'0 0.0
2017-Nov-14 18:30N 37°57' E 023°35'0 0.0
2017-Nov-14 18:00N 37°57' E 023°35'0 0.0
2017-Nov-14 17:30N 37°57' E 023°35'0 0.0
2017-Nov-14 17:00N 37°57' E 023°35'0 0.0
2017-Nov-14 16:30N 37°57' E 023°35'0 0.1
2017-Nov-14 16:00N 37°57' E 023°35'0 0.1
2017-Nov-14 15:30N 37°57' E 023°35'0 0.0
2017-Nov-14 15:00N 37°57' E 023°35'0 0.0
2017-Nov-14 14:30N 37°57' E 023°35'0 0.0
2017-Nov-14 14:00N 37°57' E 023°35'0 0.0
2017-Nov-14 13:30N 37°57' E 023°35'0 0.0
2017-Nov-14 13:00N 37°57' E 023°35'0 0.0
2017-Nov-14 12:30N 37°57' E 023°35'0 0.0
2017-Nov-14 12:00N 37°57' E 023°35'0 0.0
2017-Nov-14 11:30N 37°57' E 023°35'0 0.0
2017-Nov-14 11:00N 37°57' E 023°35'0 0.0
2017-Nov-14 10:30N 37°57' E 023°35'0 0.0
2017-Nov-14 10:00N 37°57' E 023°35'0 0.0
2017-Nov-14 09:30N 37°57' E 023°35'2 4.8
2017-Nov-14 09:00N 37°55' E 023°36'2 5.0
2017-Nov-14 08:30N 37°53' E 023°34'2 4.4
2017-Nov-14 07:59N 37°52' E 023°31'0 0.1
2017-Nov-14 07:29N 37°52' E 023°31'0 0.0
2017-Nov-14 06:59N 37°52' E 023°31'0 0.1
2017-Nov-14 06:29N 37°52' E 023°31'0 0.0
2017-Nov-14 05:59N 37°52' E 023°31'0 0.0
2017-Nov-14 05:29N 37°52' E 023°31'0 0.1
2017-Nov-14 04:59N 37°52' E 023°31'0 0.0
2017-Nov-14 04:29N 37°52' E 023°31'0 0.1
2017-Nov-14 03:59N 37°52' E 023°31'0 0.0
2017-Nov-14 03:29N 37°52' E 023°31'0 0.0
2017-Nov-14 02:59N 37°52' E 023°31'0 0.1
2017-Nov-14 02:29N 37°52' E 023°31'0 0.0
2017-Nov-14 01:59N 37°52' E 023°31'0 0.0
2017-Nov-14 01:29N 37°52' E 023°31'0 0.1
2017-Nov-14 00:59N 37°52' E 023°31'0 0.1
2017-Nov-14 00:29N 37°52' E 023°31'0 0.1
2017-Nov-13 23:59N 37°52' E 023°31'0 0.1
2017-Nov-13 23:29N 37°52' E 023°31'0 0.0
2017-Nov-13 22:59N 37°52' E 023°31'0 0.1
2017-Nov-13 22:29N 37°52' E 023°31'0 0.2
2017-Nov-13 21:59N 37°52' E 023°31'34311.1
2017-Nov-12 15:09N 37°42' E 016°17'420.7
2017-Nov-12 14:57N 37°43' E 016°11'920.3
2017-Nov-12 14:30N 37°45' E 016°00'1119.7
2017-Nov-12 13:57N 37°50' E 015°48'819.0
2017-Nov-12 13:30N 37°54' E 015°39'1019.3
2017-Nov-12 13:00N 38°04' E 015°35'917.9
2017-Nov-12 12:30N 38°13' E 015°36'713.1
2017-Nov-12 12:00N 38°18' E 015°40'4 8.9
2017-Nov-12 11:31N 38°22' E 015°37'918.4
2017-Nov-12 11:01N 38°28' E 015°29'1121.4
2017-Nov-12 10:31N 38°36' E 015°19'1121.4
2017-Nov-12 10:00N 38°44' E 015°10'1121.2
2017-Nov-12 09:30N 38°51' E 015°00'1121.3
2017-Nov-12 09:00N 38°59' E 014°50'1121.1
2017-Nov-12 08:29N 39°06' E 014°39'1021.1
2017-Nov-12 07:59N 39°13' E 014°29'28921.1
2017-Nov-11 18:19N 42°30' E 009°51'3220.0
2017-Nov-11 16:45N 42°60' E 009°36'418.3
2017-Nov-11 16:30N 43°04' E 009°34'918.5
2017-Nov-11 16:00N 43°13' E 009°30'1018.8
2017-Nov-11 15:30N 43°22' E 009°26'918.9
2017-Nov-11 15:00N 43°30' E 009°22'918.7
2017-Nov-11 14:30N 43°39' E 009°18'917.2
2017-Nov-11 14:00N 43°47' E 009°14'917.6
2017-Nov-11 13:30N 43°56' E 009°09'917.6
2017-Nov-11 13:00N 44°04' E 009°05'816.6
2017-Nov-11 12:30N 44°12' E 009°01'612.6
2017-Nov-11 12:00N 44°18' E 008°59'611.3
2017-Nov-11 11:30N 44°23' E 008°57'1 1.6
2017-Nov-11 10:59N 44°24' E 008°56'0 0.0
2017-Nov-11 10:29N 44°24' E 008°56'0 0.0
2017-Nov-11 09:59N 44°24' E 008°56'0 0.0
2017-Nov-11 09:29N 44°24' E 008°56'0 0.0
2017-Nov-11 08:56N 44°24' E 008°56'0 0.0
2017-Nov-11 08:29N 44°24' E 008°56'0 0.0
2017-Nov-11 07:59N 44°24' E 008°56'0 0.0
2017-Nov-11 07:26N 44°24' E 008°56'0 0.0
2017-Nov-11 06:59N 44°24' E 008°56'0 0.0
2017-Nov-11 06:26N 44°24' E 008°56'0 0.0
2017-Nov-11 05:59N 44°24' E 008°56'0 0.0
2017-Nov-11 05:29N 44°24' E 008°56'0 0.0
2017-Nov-11 04:59N 44°24' E 008°56'0 0.0
2017-Nov-11 04:26N 44°24' E 008°56'0 0.0
2017-Nov-11 03:59N 44°24' E 008°56'0 0.0
2017-Nov-11 03:29N 44°24' E 008°56'0 0.0
2017-Nov-11 02:59N 44°24' E 008°56'0 0.0
2017-Nov-11 02:29N 44°24' E 008°56'0 0.0
2017-Nov-11 01:59N 44°24' E 008°56'0 0.0
2017-Nov-11 01:29N 44°24' E 008°56'0 0.0
2017-Nov-11 00:59N 44°24' E 008°56'0 0.0
2017-Nov-11 00:29N 44°24' E 008°56'0 0.0
2017-Nov-10 23:59N 44°24' E 008°56'0 0.0
2017-Nov-10 23:29N 44°24' E 008°56'0 0.0
2017-Nov-10 22:59N 44°24' E 008°56'0 0.0
2017-Nov-10 22:29N 44°24' E 008°56'0 0.0
2017-Nov-10 21:59N 44°24' E 008°56'0 0.0
2017-Nov-10 21:29N 44°24' E 008°56'0 0.0
2017-Nov-10 20:59N 44°24' E 008°56'0 0.0
2017-Nov-10 20:29N 44°24' E 008°56'0 0.0
2017-Nov-10 19:59N 44°24' E 008°56'0 0.0
2017-Nov-10 19:29N 44°24' E 008°56'0 0.0
2017-Nov-10 18:59N 44°24' E 008°56'0 0.0
2017-Nov-10 18:29N 44°24' E 008°56'0 0.0
2017-Nov-10 17:59N 44°24' E 008°56'0 0.0
2017-Nov-10 17:29N 44°24' E 008°56'0 0.0
2017-Nov-10 16:59N 44°24' E 008°56'0 0.0
2017-Nov-10 16:23N 44°24' E 008°56'0 0.0
2017-Nov-10 15:53N 44°24' E 008°56'0 0.0
2017-Nov-10 15:29N 44°24' E 008°56'0 0.0
2017-Nov-10 14:59N 44°24' E 008°56'0 0.0
2017-Nov-10 14:26N 44°24' E 008°56'0 0.0
2017-Nov-10 13:56N 44°24' E 008°56'0 0.0
2017-Nov-10 13:29N 44°24' E 008°56'0 0.0
2017-Nov-10 12:59N 44°24' E 008°56'0 0.0
2017-Nov-10 12:26N 44°24' E 008°56'0 0.0
2017-Nov-10 11:56N 44°24' E 008°56'0 0.0
2017-Nov-10 11:29N 44°24' E 008°56'0 0.0
2017-Nov-10 10:59N 44°24' E 008°56'0 0.0
2017-Nov-10 10:23N 44°24' E 008°56'0 0.0
2017-Nov-10 09:59N 44°24' E 008°56'0 0.0
2017-Nov-10 09:29N 44°24' E 008°56'0 0.0
2017-Nov-10 08:59N 44°24' E 008°56'0 0.0
2017-Nov-10 08:29N 44°24' E 008°56'0 0.0
2017-Nov-10 07:59N 44°24' E 008°56'0 0.0
2017-Nov-10 07:29N 44°24' E 008°56'0 0.0
2017-Nov-10 06:59N 44°24' E 008°56'0 0.0
2017-Nov-10 06:29N 44°24' E 008°56'0 0.0
2017-Nov-10 05:59N 44°24' E 008°56'0 0.0
2017-Nov-10 05:29N 44°24' E 008°56'0 0.0
2017-Nov-10 04:59N 44°24' E 008°56'0 0.0
2017-Nov-10 04:29N 44°24' E 008°56'0 0.0
2017-Nov-10 03:56N 44°24' E 008°56'0 0.0
2017-Nov-10 03:20N 44°24' E 008°56'0 0.0
2017-Nov-10 02:56N 44°24' E 008°56'0 0.0
2017-Nov-10 02:23N 44°24' E 008°56'0 0.0
2017-Nov-10 01:59N 44°24' E 008°56'0 0.0
2017-Nov-10 01:29N 44°24' E 008°56'0 0.0
2017-Nov-10 00:59N 44°24' E 008°56'  
Track history (hours):
 
Tides and Currents Weather Stations Pressure Air Temp Water Temp Dewpoint Dewpoint Depression Visibility Wind Speed Wind Dir Waves Ship Positions

Al Rawdah

Last reported at 2017-Nov-20 00:30 UTC. Time now 2017-Nov-20 13:59 UTC.
Position N 38°07' W 009°41'.

Length 307 m; draft 8.7 m.

Type: Cargo ship. MMSI: 538004160.

Date/timePositionNaut miles runAvg speedWind from/ knotsBaromVisibWave heightAir tempDewpointWater temp
2017-Nov-20 00:30N 38°07' W 009°41'815.5
2017-Nov-20 00:00N 37°59' W 009°38'815.9
2017-Nov-19 23:30N 37°51' W 009°36'815.7
2017-Nov-19 23:00N 37°44' W 009°34'815.4
2017-Nov-19 22:30N 37°36' W 009°31'815.3
2017-Nov-19 22:00N 37°29' W 009°29'815.4
2017-Nov-19 21:30N 37°21' W 009°27'815.1
2017-Nov-19 21:00N 37°14' W 009°25'815.2
2017-Nov-19 20:30N 37°06' W 009°23'714.5
2017-Nov-19 20:00N 36°59' W 009°21'714.2
2017-Nov-19 19:30N 36°53' W 009°18'714.5
2017-Nov-19 19:00N 36°47' W 009°12'714.7
2017-Nov-19 18:30N 36°44' W 009°04'815.4
2017-Nov-19 17:59N 36°41' W 008°55'715.2
2017-Nov-19 17:30N 36°38' W 008°46'815.4
2017-Nov-19 17:00N 36°36' W 008°37'815.2
2017-Nov-19 16:30N 36°33' W 008°28'1815.0
2017-Nov-19 15:16N 36°28' W 008°06'414.9
2017-Nov-19 15:00N 36°26' W 008°02'12115.2
2017-Nov-19 07:04N 35°58' W 005°36'114.1
2017-Nov-19 07:00N 35°58' W 005°35'713.9
2017-Nov-19 06:30N 35°60' W 005°27'815.3
2017-Nov-19 06:00N 36°02' W 005°18'  
2017-Nov-16 19:53N 36°49' E 013°26'615.5
2017-Nov-16 19:30N 36°47' E 013°33'815.6
2017-Nov-16 19:00N 36°44' E 013°42'815.4
2017-Nov-16 18:30N 36°41' E 013°51'815.4
2017-Nov-16 18:00N 36°39' E 014°00'815.3
2017-Nov-16 17:30N 36°36' E 014°09'815.5
2017-Nov-16 17:00N 36°33' E 014°18'815.1
2017-Nov-16 16:30N 36°31' E 014°27'714.9
2017-Nov-16 16:00N 36°29' E 014°36'815.1
2017-Nov-16 15:30N 36°28' E 014°45'815.5
2017-Nov-16 15:00N 36°27' E 014°55'40914.3
2017-Nov-15 10:28N 36°47' E 023°24'3115.3
2017-Nov-15 08:28N 37°14' E 023°41'716.1
2017-Nov-15 08:00N 37°21' E 023°44'815.8
2017-Nov-15 07:30N 37°29' E 023°44'815.7
2017-Nov-15 07:00N 37°37' E 023°44'816.2
2017-Nov-15 06:30N 37°44' E 023°40'815.6
2017-Nov-15 06:00N 37°52' E 023°37'510.9
2017-Nov-15 05:30N 37°57' E 023°35'0 0.7
2017-Nov-15 05:00N 37°57' E 023°35'0 0.0
2017-Nov-15 04:30N 37°57' E 023°35'0 0.0
2017-Nov-15 04:00N 37°57' E 023°35'0 0.0
2017-Nov-15 03:30N 37°57' E 023°35'0 0.0
2017-Nov-15 03:00N 37°57' E 023°35'0 0.0
2017-Nov-15 02:30N 37°57' E 023°35'0 0.1
2017-Nov-15 02:00N 37°57' E 023°35'0 0.0
2017-Nov-15 01:30N 37°57' E 023°35'0 0.0
2017-Nov-15 01:00N 37°57' E 023°35'0 0.0
2017-Nov-15 00:30N 37°57' E 023°35'0 0.0
2017-Nov-15 00:01N 37°57' E 023°35'0 0.0
2017-Nov-14 23:30N 37°57' E 023°35'0 0.0
2017-Nov-14 23:00N 37°57' E 023°35'0 0.0
2017-Nov-14 22:30N 37°57' E 023°35'0 0.0
2017-Nov-14 22:00N 37°57' E 023°35'0 0.0
2017-Nov-14 21:30N 37°57' E 023°35'0 0.0
2017-Nov-14 21:00N 37°57' E 023°35'0 0.0
2017-Nov-14 20:30N 37°57' E 023°35'0 0.0
2017-Nov-14 20:00N 37°57' E 023°35'0 0.0
2017-Nov-14 19:30N 37°57' E 023°35'0 0.0
2017-Nov-14 19:00N 37°57' E 023°35'0 0.0
2017-Nov-14 18:30N 37°57' E 023°35'0 0.0
2017-Nov-14 18:00N 37°57' E 023°35'0 0.0
2017-Nov-14 17:30N 37°57' E 023°35'0 0.0
2017-Nov-14 17:00N 37°57' E 023°35'0 0.0
2017-Nov-14 16:30N 37°57' E 023°35'0 0.1
2017-Nov-14 16:00N 37°57' E 023°35'0 0.1
2017-Nov-14 15:30N 37°57' E 023°35'0 0.0
2017-Nov-14 15:00N 37°57' E 023°35'0 0.0
2017-Nov-14 14:30N 37°57' E 023°35'0 0.0
2017-Nov-14 14:00N 37°57' E 023°35'0 0.0
2017-Nov-14 13:30N 37°57' E 023°35'0 0.0
2017-Nov-14 13:00N 37°57' E 023°35'0 0.0
2017-Nov-14 12:30N 37°57' E 023°35'0 0.0
2017-Nov-14 12:00N 37°57' E 023°35'0 0.0
2017-Nov-14 11:30N 37°57' E 023°35'0 0.0
2017-Nov-14 11:00N 37°57' E 023°35'0 0.0
2017-Nov-14 10:30N 37°57' E 023°35'0 0.0
2017-Nov-14 10:00N 37°57' E 023°35'0 0.0
2017-Nov-14 09:30N 37°57' E 023°35'2 4.8
2017-Nov-14 09:00N 37°55' E 023°36'2 5.0
2017-Nov-14 08:30N 37°53' E 023°34'2 4.4
2017-Nov-14 07:59N 37°52' E 023°31'0 0.1
2017-Nov-14 07:29N 37°52' E 023°31'0 0.0
2017-Nov-14 06:59N 37°52' E 023°31'0 0.1
2017-Nov-14 06:29N 37°52' E 023°31'0 0.0
2017-Nov-14 05:59N 37°52' E 023°31'0 0.0
2017-Nov-14 05:29N 37°52' E 023°31'0 0.1
2017-Nov-14 04:59N 37°52' E 023°31'0 0.0
2017-Nov-14 04:29N 37°52' E 023°31'0 0.1
2017-Nov-14 03:59N 37°52' E 023°31'0 0.0
2017-Nov-14 03:29N 37°52' E 023°31'0 0.0
2017-Nov-14 02:59N 37°52' E 023°31'0 0.1
2017-Nov-14 02:29N 37°52' E 023°31'0 0.0
2017-Nov-14 01:59N 37°52' E 023°31'0 0.0
2017-Nov-14 01:29N 37°52' E 023°31'0 0.1
2017-Nov-14 00:59N 37°52' E 023°31'0 0.1
2017-Nov-14 00:29N 37°52' E 023°31'0 0.1
2017-Nov-13 23:59N 37°52' E 023°31'0 0.1
2017-Nov-13 23:29N 37°52' E 023°31'0 0.0
2017-Nov-13 22:59N 37°52' E 023°31'0 0.1
2017-Nov-13 22:29N 37°52' E 023°31'0 0.2
2017-Nov-13 21:59N 37°52' E 023°31'34311.1
2017-Nov-12 15:09N 37°42' E 016°17'420.7
2017-Nov-12 14:57N 37°43' E 016°11'920.3
2017-Nov-12 14:30N 37°45' E 016°00'1119.7
2017-Nov-12 13:57N 37°50' E 015°48'819.0
2017-Nov-12 13:30N 37°54' E 015°39'1019.3
2017-Nov-12 13:00N 38°04' E 015°35'917.9
2017-Nov-12 12:30N 38°13' E 015°36'713.1
2017-Nov-12 12:00N 38°18' E 015°40'4 8.9
2017-Nov-12 11:31N 38°22' E 015°37'918.4
2017-Nov-12 11:01N 38°28' E 015°29'1121.4
2017-Nov-12 10:31N 38°36' E 015°19'1121.4
2017-Nov-12 10:00N 38°44' E 015°10'1121.2
2017-Nov-12 09:30N 38°51' E 015°00'1121.3
2017-Nov-12 09:00N 38°59' E 014°50'1121.1
2017-Nov-12 08:29N 39°06' E 014°39'1021.1
2017-Nov-12 07:59N 39°13' E 014°29'28921.1
2017-Nov-11 18:19N 42°30' E 009°51'3220.0
2017-Nov-11 16:45N 42°60' E 009°36'418.3
2017-Nov-11 16:30N 43°04' E 009°34'918.5
2017-Nov-11 16:00N 43°13' E 009°30'1018.8
2017-Nov-11 15:30N 43°22' E 009°26'918.9
2017-Nov-11 15:00N 43°30' E 009°22'918.7
2017-Nov-11 14:30N 43°39' E 009°18'917.2
2017-Nov-11 14:00N 43°47' E 009°14'917.6
2017-Nov-11 13:30N 43°56' E 009°09'917.6
2017-Nov-11 13:00N 44°04' E 009°05'816.6
2017-Nov-11 12:30N 44°12' E 009°01'612.6
2017-Nov-11 12:00N 44°18' E 008°59'611.3
2017-Nov-11 11:30N 44°23' E 008°57'1 1.6
2017-Nov-11 10:59N 44°24' E 008°56'0 0.0
2017-Nov-11 10:29N 44°24' E 008°56'0 0.0
2017-Nov-11 09:59N 44°24' E 008°56'0 0.0
2017-Nov-11 09:29N 44°24' E 008°56'0 0.0
2017-Nov-11 08:56N 44°24' E 008°56'0 0.0
2017-Nov-11 08:29N 44°24' E 008°56'0 0.0
2017-Nov-11 07:59N 44°24' E 008°56'0 0.0
2017-Nov-11 07:26N 44°24' E 008°56'0 0.0
2017-Nov-11 06:59N 44°24' E 008°56'0 0.0
2017-Nov-11 06:26N 44°24' E 008°56'0 0.0
2017-Nov-11 05:59N 44°24' E 008°56'0 0.0
2017-Nov-11 05:29N 44°24' E 008°56'0 0.0
2017-Nov-11 04:59N 44°24' E 008°56'0 0.0
2017-Nov-11 04:26N 44°24' E 008°56'0 0.0
2017-Nov-11 03:59N 44°24' E 008°56'0 0.0
2017-Nov-11 03:29N 44°24' E 008°56'0 0.0
2017-Nov-11 02:59N 44°24' E 008°56'0 0.0
2017-Nov-11 02:29N 44°24' E 008°56'0 0.0
2017-Nov-11 01:59N 44°24' E 008°56'0 0.0
2017-Nov-11 01:29N 44°24' E 008°56'0 0.0
2017-Nov-11 00:59N 44°24' E 008°56'0 0.0
2017-Nov-11 00:29N 44°24' E 008°56'0 0.0
2017-Nov-10 23:59N 44°24' E 008°56'0 0.0
2017-Nov-10 23:29N 44°24' E 008°56'0 0.0
2017-Nov-10 22:59N 44°24' E 008°56'0 0.0
2017-Nov-10 22:29N 44°24' E 008°56'0 0.0
2017-Nov-10 21:59N 44°24' E 008°56'0 0.0
2017-Nov-10 21:29N 44°24' E 008°56'0 0.0
2017-Nov-10 20:59N 44°24' E 008°56'0 0.0
2017-Nov-10 20:29N 44°24' E 008°56'0 0.0
2017-Nov-10 19:59N 44°24' E 008°56'0 0.0
2017-Nov-10 19:29N 44°24' E 008°56'0 0.0
2017-Nov-10 18:59N 44°24' E 008°56'0 0.0
2017-Nov-10 18:29N 44°24' E 008°56'0 0.0
2017-Nov-10 17:59N 44°24' E 008°56'0 0.0
2017-Nov-10 17:29N 44°24' E 008°56'0 0.0
2017-Nov-10 16:59N 44°24' E 008°56'0 0.0
2017-Nov-10 16:23N 44°24' E 008°56'0 0.0
2017-Nov-10 15:53N 44°24' E 008°56'0 0.0
2017-Nov-10 15:29N 44°24' E 008°56'0 0.0
2017-Nov-10 14:59N 44°24' E 008°56'0 0.0
2017-Nov-10 14:26N 44°24' E 008°56'0 0.0
2017-Nov-10 13:56N 44°24' E 008°56'0 0.0
2017-Nov-10 13:29N 44°24' E 008°56'0 0.0
2017-Nov-10 12:59N 44°24' E 008°56'0 0.0
2017-Nov-10 12:26N 44°24' E 008°56'0 0.0
2017-Nov-10 11:56N 44°24' E 008°56'0 0.0
2017-Nov-10 11:29N 44°24' E 008°56'0 0.0
2017-Nov-10 10:59N 44°24' E 008°56'0 0.0
2017-Nov-10 10:23N 44°24' E 008°56'0 0.0
2017-Nov-10 09:59N 44°24' E 008°56'0 0.0
2017-Nov-10 09:29N 44°24' E 008°56'0 0.0
2017-Nov-10 08:59N 44°24' E 008°56'0 0.0
2017-Nov-10 08:29N 44°24' E 008°56'0 0.0
2017-Nov-10 07:59N 44°24' E 008°56'0 0.0
2017-Nov-10 07:29N 44°24' E 008°56'0 0.0
2017-Nov-10 06:59N 44°24' E 008°56'0 0.0
2017-Nov-10 06:29N 44°24' E 008°56'0 0.0
2017-Nov-10 05:59N 44°24' E 008°56'0 0.0
2017-Nov-10 05:29N 44°24' E 008°56'0 0.0
2017-Nov-10 04:59N 44°24' E 008°56'0 0.0
2017-Nov-10 04:29N 44°24' E 008°56'0 0.0
2017-Nov-10 03:56N 44°24' E 008°56'0 0.0
2017-Nov-10 03:20N 44°24' E 008°56'0 0.0
2017-Nov-10 02:56N 44°24' E 008°56'0 0.0
2017-Nov-10 02:23N 44°24' E 008°56'0 0.0
2017-Nov-10 01:59N 44°24' E 008°56'0 0.0
2017-Nov-10 01:29N 44°24' E 008°56'0 0.0
2017-Nov-10 00:59N 44°24' E 008°56'  

Dump ship's entire track history